Time;durP1;ratioP1;P1;durP2;ratioP2;P2;SDS_P1;SDS_P2;PMS_P1;PMS_P2;Temp;Humidity;BMP_temperature;BMP_pressure;BME280_temperature;BME280_humidity;BME280_pressure;Samples;Min_cycle;Max_cycle;Signal;HPM_P1;HPM_P2
2022/06/25 00:00:09;;;;;;;18.25;11.02;;;;;;;17.27;100.00;99335.28;5093876;28;20051;-87
2022/06/25 00:02:35;;;;;;;18.42;10.65;;;;;;;17.25;100.00;99326.66;5093793;28;20051;-87
2022/06/25 00:07:48;;;;;;;17.50;10.80;;;;;;;17.39;100.00;99343.13;5112788;28;20131;-87
2022/06/25 00:10:15;;;;;;;15.38;9.10;;;;;;;16.97;100.00;99353.84;5094745;28;20043;-86
2022/06/25 00:12:41;;;;;;;25.17;14.23;;;;;;;16.86;100.00;99362.69;5094359;28;20501;-87
2022/06/25 00:15:09;;;;;;;24.20;15.50;;;;;;;16.91;100.00;99333.19;5096557;28;20487;-87
2022/06/25 00:17:36;;;;;;;21.48;10.98;;;;;;;17.08;100.00;99332.56;5095391;28;20035;-87
2022/06/25 00:20:04;;;;;;;19.77;11.48;;;;;;;17.14;100.00;99321.47;5104749;28;20044;-87
2022/06/25 00:22:31;;;;;;;18.55;11.32;;;;;;;17.21;100.00;99333.19;5108629;28;20047;-87
2022/06/25 00:24:58;;;;;;;19.80;10.88;;;;;;;17.18;100.00;99351.13;5094999;28;20405;-87
2022/06/25 00:27:25;;;;;;;17.33;10.18;;;;;;;17.41;100.00;99351.75;5095060;28;20056;-87
2022/06/25 00:29:52;;;;;;;15.80;9.18;;;;;;;17.49;100.00;99343.97;5112303;28;20929;-87
2022/06/25 00:32:19;;;;;;;18.85;12.18;;;;;;;17.43;100.00;99348.00;5094264;28;20481;-87
2022/06/25 00:34:46;;;;;;;21.15;12.38;;;;;;;17.25;100.00;99328.47;5086041;28;20040;-87
2022/06/25 00:37:15;;;;;;;18.67;11.82;;;;;;;17.42;100.00;99351.63;5117134;27;20131;-88
2022/06/25 00:39:44;;;;;;;29.45;17.95;;;;;;;17.38;100.00;99341.44;5111785;28;20098;-87
2022/06/25 00:42:14;;;;;;;28.55;17.73;;;;;;;17.59;100.00;99339.53;5093236;28;20047;-87
2022/06/25 00:44:41;;;;;;;25.02;14.27;;;;;;;17.42;100.00;99334.91;5093125;28;20478;-87
2022/06/25 00:47:10;;;;;;;26.90;14.55;;;;;;;17.12;100.00;99339.25;5092954;28;20043;-87
2022/06/25 00:49:38;;;;;;;37.90;20.15;;;;;;;16.93;100.00;99355.91;5094072;28;20126;-87
2022/06/25 00:52:16;;;;;;;36.60;20.92;;;;;;;16.54;100.00;99342.44;5090167;28;20519;-86
2022/06/25 00:54:55;;;;;;;29.80;19.67;;;;;;;16.79;100.00;99333.25;5083301;28;20051;-87
2022/06/25 00:57:27;;;;;;;26.42;13.75;;;;;;;16.97;100.00;99341.44;5093655;28;20051;-87
2022/06/25 01:00:01;;;;;;;31.67;18.23;;;;;;;16.70;100.00;99329.59;5094186;28;20047;-87
2022/06/25 01:02:28;;;;;;;33.22;19.38;;;;;;;16.44;100.00;99323.88;5109262;28;20125;-87
2022/06/25 01:04:56;;;;;;;31.25;17.25;;;;;;;16.47;100.00;99310.44;5090798;28;20048;-85
2022/06/25 01:07:23;;;;;;;40.85;21.40;;;;;;;16.90;100.00;99345.59;5079624;28;20058;-87
2022/06/25 01:09:51;;;;;;;30.85;16.33;;;;;;;16.63;100.00;99330.25;5093342;28;20397;-87
2022/06/25 01:12:18;;;;;;;28.95;16.13;;;;;;;16.54;100.00;99338.94;5093376;28;20051;-87
2022/06/25 01:14:45;;;;;;;46.95;23.67;;;;;;;16.37;100.00;99346.50;5094183;28;20051;-87
2022/06/25 01:17:12;;;;;;;30.13;16.10;;;;;;;16.53;100.00;99314.34;5094516;28;20059;-87
2022/06/25 01:19:39;;;;;;;37.90;18.45;;;;;;;16.73;100.00;99309.97;5088715;28;20489;-87
2022/06/25 01:22:07;;;;;;;29.75;13.63;;;;;;;16.44;100.00;99325.69;5086054;28;20048;-87
2022/06/25 01:24:34;;;;;;;29.80;15.05;;;;;;;16.27;100.00;99321.81;5091603;28;20123;-87
2022/06/25 01:27:11;;;;;;;34.63;17.45;;;;;;;16.08;100.00;99310.16;5079195;28;20055;-87
2022/06/25 01:29:38;;;;;;;45.42;21.23;;;;;;;16.22;100.00;99334.56;5095466;28;20055;-87
2022/06/25 01:32:05;;;;;;;30.13;14.77;;;;;;;16.11;100.00;99324.91;5088409;28;20051;-87
2022/06/25 01:34:32;;;;;;;25.08;12.60;;;;;;;16.24;100.00;99314.19;5112203;28;20052;-87
2022/06/25 01:36:59;;;;;;;38.38;19.75;;;;;;;16.21;100.00;99302.06;5094951;28;20075;-87
2022/06/25 01:39:25;;;;;;;27.02;13.10;;;;;;;16.11;100.00;99286.16;5081433;28;20504;-86
2022/06/25 01:41:52;;;;;;;32.90;14.75;;;;;;;16.15;100.00;99299.94;5111620;28;20075;-86
2022/06/25 01:44:19;;;;;;;29.65;14.77;;;;;;;16.44;100.00;99321.25;5093230;28;20071;-87
2022/06/25 01:46:46;;;;;;;33.03;15.50;;;;;;;16.24;100.00;99320.28;5084830;28;20049;-87
2022/06/25 01:49:13;;;;;;;21.08;10.35;;;;;;;16.26;100.00;99307.78;5105748;28;20482;-86
2022/06/25 01:51:39;;;;;;;25.15;12.63;;;;;;;16.00;100.00;99266.91;5090166;28;20043;-87
2022/06/25 01:54:07;;;;;;;26.77;12.63;;;;;;;16.17;100.00;99276.88;5110917;28;20044;-87
2022/06/25 01:56:33;;;;;;;32.55;17.35;;;;;;;15.91;100.00;99290.44;5106756;28;20054;-84
2022/06/25 01:59:00;;;;;;;25.35;12.15;;;;;;;16.38;100.00;99307.72;5078984;28;20040;-87
2022/06/25 02:01:27;;;;;;;22.58;11.60;;;;;;;16.38;100.00;99320.91;5089143;28;20378;-87
2022/06/25 02:03:54;;;;;;;24.70;12.45;;;;;;;16.50;100.00;99291.69;5100465;28;20051;-87
2022/06/25 02:06:21;;;;;;;22.50;10.95;;;;;;;16.62;100.00;99279.19;5090322;28;20043;-88
2022/06/25 02:08:47;;;;;;;22.02;10.93;;;;;;;17.01;100.00;99289.13;5088523;28;20043;-87
2022/06/25 02:11:14;;;;;;;20.63;10.80;;;;;;;16.74;100.00;99284.41;5105631;28;20054;-87
2022/06/25 02:13:41;;;;;;;25.55;12.35;;;;;;;16.78;100.00;99309.59;5085741;28;20048;-87
2022/06/25 02:16:08;;;;;;;30.85;17.10;;;;;;;16.28;100.00;99278.63;5090446;28;20055;-88
2022/06/25 02:18:35;;;;;;;23.30;12.15;;;;;;;16.68;100.00;99291.91;5097630;28;20504;-87
2022/06/25 02:21:02;;;;;;;20.55;11.25;;;;;;;16.84;100.00;99302.03;5089805;28;20046;-87
2022/06/25 02:23:29;;;;;;;33.20;17.20;;;;;;;16.39;100.00;99298.81;5080680;28;20058;-88
2022/06/25 02:25:55;;;;;;;29.90;17.20;;;;;;;16.36;100.00;99299.09;5093286;28;20071;-87
2022/06/25 02:28:22;;;;;;;22.55;12.90;;;;;;;16.44;100.00;99301.91;5089729;28;20064;-87
2022/06/25 02:30:49;;;;;;;37.10;20.75;;;;;;;16.37;100.00;99293.66;5094743;28;20503;-87
2022/06/25 02:33:16;;;;;;;29.60;15.35;;;;;;;16.42;100.00;99288.00;5083767;28;20056;-87
2022/06/25 02:35:44;;;;;;;26.27;12.77;;;;;;;16.65;100.00;99299.25;5115814;28;20050;-87
2022/06/25 02:38:12;;;;;;;26.80;14.73;;;;;;;16.77;100.00;99300.00;5090586;28;20134;-87
2022/06/25 02:40:40;;;;;;;39.60;22.50;;;;;;;16.37;100.00;99300.78;5085223;28;20501;-86
2022/06/25 02:43:06;;;;;;;25.50;14.10;;;;;;;16.48;100.00;99277.78;5113382;28;20065;-87
2022/06/25 02:45:33;;;;;;;24.52;12.55;;;;;;;16.65;100.00;99275.47;5084927;28;20138;-86
2022/06/25 02:48:00;;;;;;;30.30;14.57;;;;;;;16.60;100.00;99290.88;5083472;28;20044;-87
2022/06/25 02:50:27;;;;;;;42.45;21.80;;;;;;;16.05;100.00;99240.94;5079428;28;20134;-87
2022/06/25 02:52:54;;;;;;;30.85;16.17;;;;;;;16.42;100.00;99298.56;5105176;28;20051;-86
2022/06/25 02:58:54;;;;;;;26.13;15.65;;;;;;;16.48;100.00;99282.19;5090121;28;20061;-86
2022/06/25 03:00:56;;;;;;;32.00;16.73;;;;;;;16.51;100.00;99280.13;5108662;28;20046;-87
2022/06/25 03:03:23;;;;;;;41.63;23.98;;;;;;;16.19;100.00;99279.41;5096913;28;20400;-87
2022/06/25 03:05:49;;;;;;;30.70;17.45;;;;;;;15.99;100.00;99286.31;5097108;28;20493;-87
2022/06/25 03:08:16;;;;;;;28.88;15.38;;;;;;;16.36;100.00;99272.66;5092193;28;20113;-88
2022/06/25 03:10:44;;;;;;;38.08;19.75;;;;;;;16.52;100.00;99270.41;5085716;28;20043;-87
2022/06/25 03:13:11;;;;;;;23.00;13.10;;;;;;;16.75;100.00;99275.50;5094023;28;20047;-87
2022/06/25 03:15:38;;;;;;;29.08;14.57;;;;;;;16.83;100.00;99279.19;5085781;28;20495;-86
2022/06/25 03:18:04;;;;;;;25.63;14.25;;;;;;;16.79;100.00;99272.47;5094682;28;20054;-87
2022/06/25 03:20:31;;;;;;;20.73;12.23;;;;;;;16.88;100.00;99273.50;5110256;28;20051;-87
2022/06/25 03:22:58;;;;;;;18.85;10.20;;;;;;;16.73;100.00;99278.28;5096486;28;20051;-87
2022/06/25 03:25:25;;;;;;;23.35;11.93;;;;;;;16.67;100.00;99253.22;5096055;28;20051;-87
2022/06/25 03:27:52;;;;;;;22.50;11.27;;;;;;;16.85;100.00;99268.47;5102638;28;20052;-87
2022/06/25 03:30:19;;;;;;;18.40;10.30;;;;;;;16.81;100.00;99261.78;5089707;28;20046;-86
2022/06/25 03:32:46;;;;;;;25.55;13.23;;;;;;;16.74;100.00;99276.50;5093838;28;20052;-87
2022/06/25 03:35:12;;;;;;;25.80;16.00;;;;;;;16.54;100.00;99283.47;5093588;28;20042;-87
2022/06/25 03:37:39;;;;;;;22.73;12.25;;;;;;;16.64;100.00;99264.06;5083999;28;20058;-87
2022/06/25 03:40:07;;;;;;;17.00;8.63;;;;;;;16.76;100.00;99270.09;5081447;28;20054;-87
2022/06/25 03:42:33;;;;;;;21.23;12.40;;;;;;;16.62;100.00;99284.47;5091060;28;20062;-87
2022/06/25 03:45:00;;;;;;;24.05;13.25;;;;;;;16.44;100.00;99264.94;5095306;28;20052;-87
2022/06/25 03:47:27;;;;;;;25.38;15.45;;;;;;;16.19;100.00;99272.31;5113623;28;20059;-88
2022/06/25 03:49:55;;;;;;;27.27;14.25;;;;;;;16.12;100.00;99247.38;5095355;28;20061;-87
2022/06/25 03:52:21;;;;;;;18.98;10.30;;;;;;;16.33;100.00;99248.19;5094391;28;20058;-87
2022/06/25 03:54:48;;;;;;;26.67;15.05;;;;;;;16.17;100.00;99268.13;5104127;28;20062;-87
2022/06/25 03:57:15;;;;;;;19.20;11.10;;;;;;;16.33;100.00;99269.31;5095142;28;20428;-87
2022/06/25 03:59:42;;;;;;;23.42;11.68;;;;;;;16.42;100.00;99283.56;5095599;28;20489;-87
2022/06/25 04:02:09;;;;;;;27.33;14.65;;;;;;;16.12;100.00;99292.28;5094640;28;20132;-87
2022/06/25 04:04:36;;;;;;;26.27;12.90;;;;;;;16.15;100.00;99270.91;5108089;28;20468;-87
2022/06/25 04:07:03;;;;;;;21.10;10.68;;;;;;;16.29;100.00;99262.63;5095623;28;20070;-87
2022/06/25 04:09:30;;;;;;;23.85;13.10;;;;;;;16.38;100.00;99276.00;5094939;28;20130;-87
2022/06/25 04:11:56;;;;;;;26.10;15.13;;;;;;;16.09;100.00;99245.81;5093257;28;20477;-87
2022/06/25 04:14:23;;;;;;;19.58;11.48;;;;;;;16.28;100.00;99287.38;5098588;28;20056;-87
2022/06/25 04:16:50;;;;;;;30.45;16.67;;;;;;;15.73;100.00;99240.00;5096264;28;20135;-87
2022/06/25 04:19:17;;;;;;;20.63;10.52;;;;;;;15.97;100.00;99248.66;5095316;28;20070;-87
2022/06/25 04:21:47;;;;;;;22.55;10.93;;;;;;;15.75;100.00;99240.72;5094414;28;20404;-87
2022/06/25 04:24:15;;;;;;;24.88;12.27;;;;;;;16.05;100.00;99241.78;5112804;28;20166;-87
2022/06/25 04:26:42;;;;;;;18.58;9.13;;;;;;;16.24;100.00;99256.09;5107562;28;20048;-87
2022/06/25 04:29:09;;;;;;;24.42;11.25;;;;;;;16.65;100.00;99265.72;5106020;28;20112;-87
2022/06/25 04:31:37;;;;;;;24.92;10.57;;;;;;;17.18;100.00;99283.19;5087028;28;20781;-86
2022/06/25 04:34:05;;;;;;;24.25;11.05;;;;;;;17.08;100.00;99254.06;5083982;28;20486;-86
2022/06/25 04:36:32;;;;;;;14.73;7.57;;;;;;;17.03;100.00;99263.38;5085695;28;20055;-88
2022/06/25 04:38:58;;;;;;;14.57;6.72;;;;;;;17.24;100.00;99248.25;5082771;28;20225;-88
2022/06/25 04:41:25;;;;;;;17.38;7.80;;;;;;;17.19;100.00;99281.38;5083802;28;20043;-88
2022/06/25 04:43:52;;;;;;;22.55;9.85;;;;;;;16.76;100.00;99264.81;5077607;28;20065;-88
2022/06/25 04:46:19;;;;;;;18.70;7.93;;;;;;;16.67;100.00;99249.75;5095830;28;20035;-88
2022/06/25 04:48:46;;;;;;;18.00;6.55;;;;;;;16.69;100.00;99248.63;5095348;28;20052;-88
2022/06/25 04:51:13;;;;;;;14.82;6.60;;;;;;;17.47;100.00;99242.72;5089799;28;20131;-87
2022/06/25 04:53:55;;;;;;;19.80;7.65;;;;;;;18.08;100.00;99261.94;5094707;28;20057;-87
2022/06/25 04:56:24;;;;;;;17.05;6.45;;;;;;;18.33;100.00;99273.78;5113253;28;20473;-86
2022/06/25 04:58:51;;;;;;;15.68;6.20;;;;;;;18.03;100.00;99283.56;5095196;28;20481;-87
2022/06/25 05:01:19;;;;;;;19.67;8.38;;;;;;;17.00;100.00;99285.66;5109720;28;20483;-87
2022/06/25 05:03:46;;;;;;;17.80;7.70;;;;;;;16.93;100.00;99273.09;5080854;28;20048;-88
2022/06/25 05:06:14;;;;;;;18.25;7.10;;;;;;;16.97;100.00;99261.28;5113067;28;20105;-87
2022/06/25 05:08:41;;;;;;;19.70;7.20;;;;;;;16.57;100.00;99256.78;5094912;28;20405;-87
2022/06/25 05:11:08;;;;;;;17.95;7.60;;;;;;;16.60;100.00;99270.56;5090514;28;20049;-87
2022/06/25 05:13:35;;;;;;;18.88;6.65;;;;;;;16.54;100.00;99276.41;5092960;28;20069;-87
2022/06/25 05:16:02;;;;;;;19.33;7.07;;;;;;;16.36;100.00;99262.97;5110879;28;20048;-87
2022/06/25 05:18:28;;;;;;;22.35;6.35;;;;;;;16.61;100.00;99227.34;5078783;28;20043;-87
2022/06/25 05:20:56;;;;;;;20.58;6.88;;;;;;;16.78;100.00;99262.84;5086382;28;20486;-85
2022/06/25 05:23:22;;;;;;;19.17;6.82;;;;;;;16.81;100.00;99274.97;5086123;28;20051;-86
2022/06/25 05:25:49;;;;;;;16.73;6.50;;;;;;;16.81;100.00;99278.44;5086625;28;20058;-89
2022/06/25 05:28:17;;;;;;;18.80;6.63;;;;;;;16.57;100.00;99299.06;5115528;28;20105;-85
2022/06/25 05:30:43;;;;;;;17.02;6.50;;;;;;;16.48;100.00;99309.47;5104405;28;20086;-87
2022/06/25 05:33:10;;;;;;;17.85;5.72;;;;;;;16.70;100.00;99289.97;5089013;28;20050;-87
2022/06/25 05:35:37;;;;;;;21.63;7.13;;;;;;;17.51;100.00;99298.84;5089929;28;20047;-87
2022/06/25 05:38:06;;;;;;;15.98;5.82;;;;;;;18.35;100.00;99303.59;5113103;28;20131;-88
2022/06/25 05:40:34;;;;;;;14.15;5.13;;;;;;;17.94;100.00;99313.56;5100314;28;20724;-87
2022/06/25 05:43:01;;;;;;;17.83;5.20;;;;;;;17.79;100.00;99295.38;5084845;28;20139;-89
2022/06/25 05:45:29;;;;;;;21.50;5.40;;;;;;;17.41;100.00;99318.19;5097922;28;20529;-88
2022/06/25 05:47:56;;;;;;;17.52;6.00;;;;;;;17.32;100.00;99284.63;5107247;28;20079;-87
2022/06/25 05:50:37;;;;;;;20.15;6.80;;;;;;;16.80;100.00;99329.66;5099632;28;20375;-86
2022/06/25 05:53:05;;;;;;;14.27;5.40;;;;;;;16.88;100.00;99298.13;5105211;28;20040;-87
2022/06/25 05:55:34;;;;;;;14.45;5.35;;;;;;;17.35;100.00;99323.19;5124638;28;20052;-87
2022/06/25 05:58:02;;;;;;;13.35;4.43;;;;;;;18.00;100.00;99328.88;5101521;28;20075;-87
2022/06/25 06:00:30;;;;;;;18.67;6.03;;;;;;;17.23;100.00;99318.00;5093800;28;20496;-87
2022/06/25 06:02:58;;;;;;;18.35;6.20;;;;;;;17.41;100.00;99341.19;5110885;28;20107;-87
2022/06/25 06:05:27;;;;;;;14.15;5.00;;;;;;;17.27;100.00;99342.38;5111335;28;20116;-87
2022/06/25 06:08:08;;;;;;;16.92;4.97;;;;;;;17.01;100.00;99310.28;5112690;28;20054;-86
2022/06/25 06:10:36;;;;;;;17.10;4.82;;;;;;;17.06;100.00;99285.09;5110049;28;20058;-86
2022/06/25 06:13:03;;;;;;;18.52;4.85;;;;;;;17.93;100.00;99307.41;5129393;28;20062;-87
2022/06/25 06:15:44;;;;;;;17.15;5.63;;;;;;;17.77;100.00;99347.63;5113330;28;20043;-87
2022/06/25 06:18:16;;;;;;;19.48;5.32;;;;;;;17.98;100.00;99325.53;5112972;28;20054;-86
2022/06/25 06:20:44;;;;;;;15.75;4.53;;;;;;;17.49;100.00;99324.63;5120405;28;20109;-85
2022/06/25 06:23:24;;;;;;;16.08;5.05;;;;;;;17.01;100.00;99291.78;5095112;28;20138;-87
2022/06/25 06:25:55;;;;;;;18.17;5.30;;;;;;;17.29;100.00;99368.72;5106664;28;20063;-85
2022/06/25 06:28:27;;;;;;;16.05;4.88;;;;;;;16.96;100.00;99339.75;5115048;28;20063;-87
2022/06/25 06:31:07;;;;;;;19.17;4.93;;;;;;;16.80;100.00;99316.44;5130677;28;20140;-88
2022/06/25 06:33:36;;;;;;;22.73;5.78;;;;;;;17.14;100.00;99333.84;5098122;28;20052;-86
2022/06/25 06:36:17;;;;;;;16.77;4.97;;;;;;;17.19;100.00;99364.22;5104291;28;20490;-87
2022/06/25 06:38:57;;;;;;;16.80;4.25;;;;;;;17.13;100.00;99348.88;5101431;28;20074;-87
2022/06/25 06:41:38;;;;;;;14.52;4.07;;;;;;;17.24;100.00;99356.69;5130798;28;20059;-83
2022/06/25 06:44:18;;;;;;;17.52;4.97;;;;;;;17.18;100.00;99378.41;5115539;28;20057;-85
2022/06/25 06:46:47;;;;;;;17.30;6.10;;;;;;;17.55;100.00;99359.31;5114664;28;20043;-86
2022/06/25 06:49:23;;;;;;;18.27;5.28;;;;;;;17.84;100.00;99353.22;5132181;28;20087;-86
2022/06/25 06:52:04;;;;;;;14.73;5.13;;;;;;;17.86;100.00;99388.38;5114319;28;20075;-86
2022/06/25 06:54:45;;;;;;;17.60;5.15;;;;;;;18.30;100.00;99340.28;5095590;28;20044;-87
2022/06/25 06:57:26;;;;;;;11.70;3.80;;;;;;;18.94;100.00;99373.22;5115353;28;20085;-87
2022/06/25 07:00:04;;;;;;;18.10;4.10;;;;;;;18.11;100.00;99362.31;5114341;28;20055;-86
2022/06/25 07:02:36;;;;;;;13.73;3.90;;;;;;;19.02;100.00;99394.56;5114317;28;20058;-87
2022/06/25 07:05:17;;;;;;;16.52;4.30;;;;;;;18.50;100.00;99417.94;5130806;28;20062;-87
2022/06/25 07:07:57;;;;;;;14.75;3.83;;;;;;;19.14;100.00;99366.88;5110925;28;20082;-87
2022/06/25 07:10:29;;;;;;;13.05;3.22;;;;;;;19.59;100.00;99399.75;5106117;28;20047;-87
2022/06/25 07:13:10;;;;;;;12.95;3.25;;;;;;;19.03;100.00;99398.88;5094183;28;20083;-87
2022/06/25 07:15:37;;;;;;;14.23;3.65;;;;;;;20.00;100.00;99418.81;5104304;28;20067;-87
2022/06/25 07:18:04;;;;;;;12.77;2.80;;;;;;;20.14;100.00;99376.78;5113614;28;20047;-87
2022/06/25 07:20:34;;;;;;;16.35;3.22;;;;;;;20.15;100.00;99370.47;5099796;28;20130;-87
2022/06/25 07:23:01;;;;;;;14.10;3.47;;;;;;;20.58;100.00;99422.84;5114976;28;20495;-88
2022/06/25 07:25:28;;;;;;;12.23;2.92;;;;;;;20.69;100.00;99423.63;5096957;28;20043;-88
2022/06/25 07:27:55;;;;;;;11.82;2.83;;;;;;;21.39;100.00;99411.06;5082627;28;20044;-88
2022/06/25 07:30:22;;;;;;;9.07;2.67;;;;;;;21.02;100.00;99417.53;5096257;28;20052;-88
2022/06/25 07:32:48;;;;;;;9.07;1.90;;;;;;;21.11;100.00;99405.09;5094763;28;20055;-88
2022/06/25 07:35:15;;;;;;;11.68;2.65;;;;;;;20.80;100.00;99418.03;5081824;28;20043;-88
2022/06/25 07:37:42;;;;;;;6.97;1.70;;;;;;;20.60;100.00;99422.69;5096599;28;20485;-88
2022/06/25 07:40:09;;;;;;;11.95;2.10;;;;;;;20.80;100.00;99432.16;5113813;28;20047;-88
2022/06/25 07:42:36;;;;;;;7.75;1.60;;;;;;;21.58;99.51;99423.31;5095249;28;20118;-87
2022/06/25 07:45:03;;;;;;;11.10;1.77;;;;;;;22.15;95.60;99425.31;5093806;28;20052;-87
2022/06/25 07:47:37;;;;;;;8.82;1.92;;;;;;;22.13;89.51;99450.44;5082186;28;20050;-87
2022/06/25 07:52:52;;;;;;;7.78;1.60;;;;;;;21.62;90.69;99415.84;5112786;28;20052;-88
2022/06/25 07:55:19;;;;;;;9.73;1.88;;;;;;;21.49;91.72;99458.06;5113636;28;20044;-87
2022/06/25 07:57:46;;;;;;;8.85;1.75;;;;;;;22.28;87.75;99454.16;5087161;28;20486;-88
2022/06/25 08:00:13;;;;;;;9.70;2.28;;;;;;;22.39;85.08;99463.69;5089683;28;20148;-88
2022/06/25 08:02:40;;;;;;;9.68;1.80;;;;;;;22.74;80.96;99435.84;5094740;28;20482;-88
2022/06/25 08:05:07;;;;;;;8.20;1.55;;;;;;;21.50;83.89;99433.09;5111385;28;20059;-88
2022/06/25 08:07:34;;;;;;;9.48;1.77;;;;;;;21.66;83.56;99454.47;5095522;28;20714;-88
2022/06/25 08:10:02;;;;;;;6.22;1.40;;;;;;;21.86;84.44;99473.69;5095236;28;20126;-88
2022/06/25 08:12:29;;;;;;;6.75;1.02;;;;;;;21.77;79.57;99451.50;5080844;28;20466;-87
2022/06/25 08:14:56;;;;;;;4.82;0.95;;;;;;;21.45;78.01;99452.19;5113258;28;20039;-88
2022/06/25 08:17:23;;;;;;;6.05;1.20;;;;;;;21.41;76.20;99478.28;5095412;28;20050;-87
2022/06/25 08:19:49;;;;;;;7.63;1.45;;;;;;;21.79;77.14;99478.00;5108944;28;20593;-88
2022/06/25 08:22:16;;;;;;;4.82;0.85;;;;;;;22.15;76.51;99473.28;5088803;28;20401;-88
2022/06/25 08:24:43;;;;;;;7.65;1.08;;;;;;;21.71;74.69;99488.59;5094091;28;20047;-87
2022/06/25 08:27:10;;;;;;;5.43;1.00;;;;;;;21.68;77.03;99481.78;5086376;28;20498;-87
2022/06/25 08:29:37;;;;;;;6.53;1.50;;;;;;;21.68;75.07;99486.28;5074449;28;20051;-88
2022/06/25 08:32:04;;;;;;;7.53;1.20;;;;;;;21.56;76.32;99515.00;5112379;28;20131;-87
2022/06/25 08:34:31;;;;;;;6.10;1.05;;;;;;;21.93;74.41;99482.69;5084364;28;20101;-88
2022/06/25 08:36:58;;;;;;;9.35;1.17;;;;;;;21.42;78.39;99503.09;5093773;28;20047;-88
2022/06/25 08:39:24;;;;;;;7.20;1.33;;;;;;;21.85;75.64;99482.69;5095627;28;20054;-88
2022/06/25 08:41:52;;;;;;;4.28;1.13;;;;;;;22.30;73.77;99504.66;5094009;28;20046;-87
2022/06/25 08:44:19;;;;;;;7.65;1.35;;;;;;;22.11;74.16;99485.25;5094662;28;20051;-87
2022/06/25 08:46:47;;;;;;;7.20;1.45;;;;;;;21.90;74.49;99509.69;5098769;28;20055;-87
2022/06/25 08:49:17;;;;;;;3.97;0.85;;;;;;;21.97;73.53;99526.69;5092881;28;20127;-88
2022/06/25 08:51:46;;;;;;;5.60;1.20;;;;;;;21.73;76.44;99500.78;5107112;28;20039;-88
2022/06/25 08:54:13;;;;;;;5.80;0.90;;;;;;;21.62;76.92;99519.72;5095641;28;20050;-87
2022/06/25 08:56:41;;;;;;;6.10;1.00;;;;;;;21.23;77.75;99546.75;5099205;28;20056;-88
2022/06/25 08:59:08;;;;;;;6.50;1.20;;;;;;;21.62;77.52;99493.09;5093712;28;20130;-87
2022/06/25 09:01:35;;;;;;;6.18;1.00;;;;;;;21.38;80.16;99515.06;5090955;28;20473;-87
2022/06/25 09:04:02;;;;;;;4.20;0.93;;;;;;;21.47;80.16;99503.47;5095171;28;20046;-87
2022/06/25 09:06:29;;;;;;;6.60;1.25;;;;;;;22.26;78.38;99527.28;5099108;28;20430;-87
2022/06/25 09:09:15;;;;;;;8.43;1.33;;;;;;;21.56;80.65;99539.81;5095192;28;20053;-87
2022/06/25 09:11:55;;;;;;;8.05;1.20;;;;;;;22.10;77.82;99528.91;5083032;28;20097;-88
2022/06/25 09:14:28;;;;;;;8.52;1.33;;;;;;;21.74;78.84;99509.59;5094731;28;20058;-88
2022/06/25 09:16:59;;;;;;;;;;;;;;;22.24;78.17;99531.94;5095437;28;20073;-87
2022/06/25 09:19:33;;;;;;;5.60;1.23;;;;;;;22.00;76.91;99537.03;5094513;28;19963;-88
2022/06/25 09:22:09;;;;;;;7.28;1.30;;;;;;;21.43;81.35;99532.22;5093526;28;20124;-88
2022/06/25 09:24:54;;;;;;;4.25;1.13;;;;;;;20.52;87.87;99540.44;5080411;28;20401;-88
2022/06/25 09:27:35;;;;;;;8.63;1.25;;;;;;;21.66;82.65;99536.22;5094616;28;20047;-87
2022/06/25 09:30:14;;;;;;;8.77;1.40;;;;;;;21.48;79.97;99554.91;5094134;28;20079;-87
2022/06/25 09:32:54;;;;;;;8.77;1.17;;;;;;;20.98;85.40;99535.06;5093424;28;20050;-87
2022/06/25 09:35:37;;;;;;;6.47;1.30;;;;;;;21.68;81.70;99556.38;5083411;28;20445;-88
2022/06/25 09:38:14;;;;;;;5.30;1.10;;;;;;;21.34;82.35;99565.09;5094662;28;20055;-87
2022/06/25 09:40:54;;;;;;;9.20;1.77;;;;;;;21.17;85.13;99556.16;5092824;28;20122;-87
2022/06/25 09:43:24;;;;;;;8.65;1.58;;;;;;;21.36;86.22;99556.97;5094162;28;20134;-87
2022/06/25 09:45:55;;;;;;;8.82;1.35;;;;;;;21.64;88.35;99562.16;5111848;28;20057;-88
2022/06/25 09:48:25;;;;;;;9.40;1.25;;;;;;;22.45;81.74;99529.69;5093082;28;20123;-88
2022/06/25 09:51:07;;;;;;;7.65;1.55;;;;;;;22.14;83.30;99564.91;5075107;28;20478;-88
2022/06/25 09:53:36;;;;;;;6.30;1.75;;;;;;;22.08;81.18;99570.03;5111891;28;20102;-88
2022/06/25 09:56:03;;;;;;;8.35;1.42;;;;;;;21.68;86.72;99564.34;5093997;28;20048;-88
2022/06/25 09:58:34;;;;;;;6.07;1.33;;;;;;;22.11;85.67;99569.72;5094128;28;20453;-87
2022/06/25 10:01:03;;;;;;;9.48;1.80;;;;;;;22.03;83.44;99564.34;5093450;28;20097;-88
2022/06/25 10:03:33;;;;;;;6.18;1.63;;;;;;;21.70;86.01;99585.50;5098797;28;20052;-88
2022/06/25 10:06:01;;;;;;;11.20;1.80;;;;;;;21.49;87.13;99572.56;5108189;28;20052;-88
2022/06/25 10:08:29;;;;;;;9.02;2.25;;;;;;;20.79;92.86;99586.63;5093990;28;20135;-88
2022/06/25 10:10:57;;;;;;;10.32;2.00;;;;;;;20.75;93.79;99569.28;5094437;28;20050;-86
2022/06/25 10:13:24;;;;;;;7.20;1.52;;;;;;;21.02;97.89;99587.00;5098653;28;20054;-88
2022/06/25 10:15:52;;;;;;;6.93;1.45;;;;;;;21.23;95.15;99597.31;5103178;28;20127;-87
2022/06/25 10:18:19;;;;;;;11.80;2.00;;;;;;;21.44;94.08;99607.59;5109437;28;20109;-87
2022/06/25 10:20:46;;;;;;;6.93;1.58;;;;;;;21.63;89.57;99595.13;5088215;28;20052;-88
2022/06/25 10:23:14;;;;;;;10.15;1.67;;;;;;;21.74;88.80;99610.81;5097171;28;20043;-88
2022/06/25 10:25:42;;;;;;;7.22;1.67;;;;;;;22.11;89.12;99596.38;5115394;28;20043;-87
2022/06/25 10:28:12;;;;;;;8.85;1.75;;;;;;;21.54;89.04;99610.22;5094773;28;20048;-86
2022/06/25 10:30:50;;;;;;;8.70;1.65;;;;;;;20.78;97.26;99612.34;5085702;28;20047;-87
2022/06/25 10:33:23;;;;;;;8.52;1.65;;;;;;;21.60;94.40;99610.44;5097483;28;20139;-88
2022/06/25 10:35:52;;;;;;;11.02;1.88;;;;;;;21.74;92.30;99608.16;5095115;28;20166;-88
2022/06/25 10:38:24;;;;;;;8.73;1.60;;;;;;;22.45;82.98;99580.38;5093830;28;20047;-87
2022/06/25 10:40:59;;;;;;;12.97;2.20;;;;;;;21.66;82.59;99622.28;5096840;28;20047;-87
2022/06/25 10:43:38;;;;;;;6.43;1.25;;;;;;;22.30;81.68;99633.47;5097736;28;20493;-87
2022/06/25 10:46:22;;;;;;;5.85;1.33;;;;;;;21.66;79.09;99613.47;5097351;28;20043;-87
2022/06/25 10:48:58;;;;;;;7.70;1.58;;;;;;;22.52;79.02;99631.22;5091427;28;20490;-88
2022/06/25 10:51:29;;;;;;;6.75;1.35;;;;;;;21.45;76.65;99649.22;5089368;28;20048;-88
2022/06/25 10:53:58;;;;;;;8.43;1.30;;;;;;;21.89;75.08;99632.41;5098078;28;20132;-88
2022/06/25 10:56:26;;;;;;;5.90;0.98;;;;;;;21.30;74.70;99624.13;5115437;28;20796;-88
2022/06/25 10:58:53;;;;;;;5.78;1.10;;;;;;;21.47;73.81;99636.63;5083136;28;20053;-88
2022/06/25 11:01:22;;;;;;;7.40;1.35;;;;;;;21.21;75.43;99647.19;5096796;28;20503;-87
2022/06/25 11:03:54;;;;;;;8.75;1.48;;;;;;;20.55;80.07;99654.47;5101125;28;20048;-87
2022/06/25 11:06:29;;;;;;;7.90;1.50;;;;;;;20.88;80.27;99672.66;5115314;28;20134;-87
2022/06/25 11:09:08;;;;;;;9.95;2.00;;;;;;;21.25;76.09;99656.56;5097103;28;20272;-87
2022/06/25 11:11:35;;;;;;;7.28;1.20;;;;;;;20.43;79.99;99663.63;5084369;28;20515;-88
2022/06/25 11:14:11;;;;;;;6.40;1.17;;;;;;;21.21;80.17;99684.44;5084072;28;20052;-86
2022/06/25 11:16:38;;;;;;;6.65;1.10;;;;;;;21.30;74.35;99669.38;5096871;28;20058;-86
2022/06/25 11:19:05;;;;;;;6.63;1.20;;;;;;;21.26;77.62;99676.84;5114822;28;20127;-88
2022/06/25 11:21:40;;;;;;;5.97;1.10;;;;;;;20.98;72.36;99692.03;5092070;28;20128;-88
2022/06/25 11:24:15;;;;;;;6.70;1.38;;;;;;;20.43;74.78;99695.53;5088224;28;20046;-88
2022/06/25 11:29:41;;;;;;;6.55;1.25;;;;;;;21.42;70.44;99679.66;5113767;28;20051;-87
2022/06/25 11:32:10;;;;;;;7.35;1.20;;;;;;;21.13;67.86;99682.56;5080582;28;20062;-88
2022/06/25 11:34:37;;;;;;;10.90;1.77;;;;;;;20.54;67.94;99706.00;5096742;28;20058;-88
2022/06/25 11:37:09;;;;;;;6.70;1.38;;;;;;;20.60;70.40;99691.25;5090671;28;20055;-87
2022/06/25 11:39:38;;;;;;;9.45;1.35;;;;;;;20.97;68.66;99687.72;5089485;28;20047;-88